Saluda Terrace, South Carolina
Current Conditions -  °F | °C
As of 10:56 AM on Saturday 25 Oct 2014 (Local Time) from KCAE Reporting Station
Clear Clear  
Wind Chill: 64°   Ceiling: Unl
Heat Index: 64°   Visibility: 10mi
Dew Point: 41°   Wind: 6mph
Humidity: 43%   Direction: 10°N
Pressure: 30.05"   Gusts: NA
Location:  33.9973°N, 81.0998°W
Report Text: KCAE 251456Z 01005KT 10SM CLR 18/05 A3005 RMK AO2 SLP174 T01780050 50004
Loading
Personal Weather Stations






























Interactive Weather Map
Tropical Storm Tracking
New forecast layout! Learn more

10-Day Weather Forecast

Advertisements
Track Severe Weather on mobile